NKS510 KLAS-KLGB
Flight info
| Callsign | NKS510 |
|---|---|
| Flight time | 0h 44m |
| Altitude | 28000 |
| Route | RADYR2 SLVRR FEYLA ROOBY3 |
| Aircraft | A321/M-VGDW/C |
Departure
| Time | 2026-05-05 21:21 |
|---|---|
| Airport | Harry Reid International Airport (KLAS) |
Arrival
| Time | 2026-05-05 22:05 |
|---|---|
| Airport | Long Beach International Airport (KLGB) |
| Time | Latitude | Longitude | Altitude | Speed | Heading |
|---|---|---|---|---|---|
| 2026-05-05 20:56 | 36.08504 | -115.15483 | 2189 ft | 0 kts | 56° |
| 2026-05-05 21:12 | 36.08502 | -115.15486 | 2188 ft | 1 kts | 56° |
| 2026-05-05 21:13 | 36.08492 | -115.15504 | 2190 ft | 3 kts | 56° |
| 2026-05-05 21:13 | 36.08481 | -115.15525 | 2190 ft | 3 kts | 56° |
| 2026-05-05 21:13 | 36.08471 | -115.15543 | 2191 ft | 3 kts | 49° |
| 2026-05-05 21:13 | 36.08458 | -115.15556 | 2189 ft | 3 kts | 12° |
| 2026-05-05 21:14 | 36.08439 | -115.15557 | 2189 ft | 3 kts | 342° |
| 2026-05-05 21:14 | 36.08429 | -115.15552 | 2190 ft | 0 kts | 335° |
| 2026-05-05 21:16 | 36.08444 | -115.15561 | 2189 ft | 6 kts | 335° |
| 2026-05-05 21:16 | 36.08484 | -115.15585 | 2190 ft | 7 kts | 333° |
| 2026-05-05 21:16 | 36.08497 | -115.15655 | 2188 ft | 10 kts | 259° |
| 2026-05-05 21:16 | 36.08544 | -115.15719 | 2188 ft | 13 kts | 334° |
| 2026-05-05 21:17 | 36.08628 | -115.15768 | 2190 ft | 14 kts | 334° |
| 2026-05-05 21:17 | 36.08719 | -115.15784 | 2189 ft | 14 kts | 19° |
| 2026-05-05 21:17 | 36.08808 | -115.15735 | 2189 ft | 14 kts | 25° |
| 2026-05-05 21:17 | 36.08903 | -115.15680 | 2191 ft | 16 kts | 25° |
| 2026-05-05 21:18 | 36.09005 | -115.15622 | 2189 ft | 16 kts | 25° |
| 2026-05-05 21:18 | 36.09109 | -115.15562 | 2190 ft | 17 kts | 25° |
| 2026-05-05 21:18 | 36.09217 | -115.15501 | 2190 ft | 17 kts | 25° |
| 2026-05-05 21:18 | 36.09327 | -115.15437 | 2188 ft | 18 kts | 25° |
| 2026-05-05 21:19 | 36.09440 | -115.15372 | 2190 ft | 18 kts | 25° |
| 2026-05-05 21:19 | 36.09557 | -115.15305 | 2189 ft | 19 kts | 24° |
| 2026-05-05 21:19 | 36.09676 | -115.15236 | 2188 ft | 19 kts | 25° |
| 2026-05-05 21:19 | 36.09768 | -115.15215 | 2188 ft | 12 kts | 336° |
| 2026-05-05 21:20 | 36.09815 | -115.15298 | 2192 ft | 12 kts | 295° |
| 2026-05-05 21:20 | 36.09828 | -115.15376 | 2193 ft | 6 kts | 220° |
| 2026-05-05 21:20 | 36.09784 | -115.15399 | 2190 ft | 10 kts | 204° |
| 2026-05-05 21:20 | 36.09501 | -115.15563 | 2194 ft | 81 kts | 205° |
| 2026-05-05 21:21 | 36.08793 | -115.15967 | 2190 ft | 141 kts | 205° |
| 2026-05-05 21:21 | 36.07751 | -115.16562 | 2315 ft | 179 kts | 205° |
| 2026-05-05 21:21 | 36.06618 | -115.17213 | 3017 ft | 180 kts | 205° |
| 2026-05-05 21:21 | 36.05478 | -115.17884 | 3649 ft | 184 kts | 206° |
| 2026-05-05 21:22 | 36.04276 | -115.18608 | 3964 ft | 201 kts | 205° |
| 2026-05-05 21:22 | 36.02981 | -115.19392 | 4315 ft | 214 kts | 206° |
| 2026-05-05 21:22 | 36.01603 | -115.20223 | 4596 ft | 233 kts | 206° |
| 2026-05-05 21:22 | 36.00069 | -115.21100 | 4912 ft | 252 kts | 202° |
| 2026-05-05 21:23 | 35.98377 | -115.21913 | 5327 ft | 267 kts | 200° |
| 2026-05-05 21:23 | 35.96612 | -115.22707 | 5988 ft | 272 kts | 200° |
| 2026-05-05 21:23 | 35.94819 | -115.23498 | 6673 ft | 276 kts | 200° |
| 2026-05-05 21:23 | 35.92996 | -115.24302 | 7324 ft | 280 kts | 200° |
| 2026-05-05 21:24 | 35.91162 | -115.25118 | 8060 ft | 280 kts | 200° |
| 2026-05-05 21:24 | 35.89319 | -115.25948 | 8744 ft | 284 kts | 200° |
| 2026-05-05 21:24 | 35.87448 | -115.26797 | 9406 ft | 289 kts | 201° |
| 2026-05-05 21:24 | 35.85548 | -115.27658 | 10043 ft | 293 kts | 201° |
| 2026-05-05 21:25 | 35.83620 | -115.28534 | 10639 ft | 297 kts | 201° |
| 2026-05-05 21:25 | 35.81669 | -115.29421 | 11278 ft | 300 kts | 200° |
| 2026-05-05 21:25 | 35.79705 | -115.30311 | 11944 ft | 302 kts | 200° |
| 2026-05-05 21:25 | 35.77718 | -115.31211 | 12555 ft | 306 kts | 200° |
| 2026-05-05 21:26 | 35.75873 | -115.32047 | 13127 ft | 310 kts | 200° |
| 2026-05-05 21:26 | 35.73815 | -115.32982 | 13502 ft | 323 kts | 200° |
| 2026-05-05 21:26 | 35.71651 | -115.33965 | 13730 ft | 340 kts | 200° |
| 2026-05-05 21:26 | 35.69375 | -115.34994 | 13893 ft | 357 kts | 200° |
| 2026-05-05 21:27 | 35.66978 | -115.36073 | 13988 ft | 376 kts | 200° |
| 2026-05-05 21:27 | 35.64483 | -115.37195 | 14251 ft | 387 kts | 200° |
| 2026-05-05 21:27 | 35.62014 | -115.38555 | 14750 ft | 391 kts | 210° |
| 2026-05-05 21:27 | 35.59782 | -115.40475 | 15289 ft | 394 kts | 221° |
| 2026-05-05 21:28 | 35.57823 | -115.42848 | 15793 ft | 398 kts | 227° |
| 2026-05-05 21:28 | 35.55957 | -115.45331 | 16292 ft | 403 kts | 228° |
| 2026-05-05 21:28 | 35.54086 | -115.47891 | 16941 ft | 403 kts | 229° |
| 2026-05-05 21:28 | 35.52213 | -115.50477 | 17485 ft | 407 kts | 229° |
| 2026-05-05 21:29 | 35.50315 | -115.53079 | 18040 ft | 411 kts | 229° |
| 2026-05-05 21:29 | 35.48394 | -115.55691 | 18535 ft | 414 kts | 229° |
| 2026-05-05 21:29 | 35.46445 | -115.58318 | 19000 ft | 418 kts | 228° |
| 2026-05-05 21:29 | 35.44478 | -115.60960 | 19433 ft | 421 kts | 228° |
| 2026-05-05 21:30 | 35.42492 | -115.63626 | 19873 ft | 425 kts | 228° |
| 2026-05-05 21:30 | 35.40494 | -115.66313 | 20316 ft | 428 kts | 228° |
| 2026-05-05 21:30 | 35.38480 | -115.69020 | 20751 ft | 431 kts | 228° |
| 2026-05-05 21:30 | 35.36448 | -115.71749 | 21175 ft | 435 kts | 228° |
| 2026-05-05 21:31 | 35.34404 | -115.74492 | 21607 ft | 438 kts | 228° |
| 2026-05-05 21:31 | 35.32341 | -115.77254 | 22031 ft | 440 kts | 228° |
| 2026-05-05 21:31 | 35.30266 | -115.80026 | 22465 ft | 443 kts | 227° |
| 2026-05-05 21:31 | 35.28177 | -115.82813 | 22867 ft | 446 kts | 227° |
| 2026-05-05 21:32 | 35.26074 | -115.85616 | 23278 ft | 448 kts | 227° |
| 2026-05-05 21:32 | 35.23958 | -115.88433 | 23660 ft | 451 kts | 227° |
| 2026-05-05 21:32 | 35.21857 | -115.91223 | 24006 ft | 453 kts | 227° |
| 2026-05-05 21:32 | 35.19689 | -115.94027 | 24369 ft | 455 kts | 226° |
| 2026-05-05 21:33 | 35.17483 | -115.96811 | 24728 ft | 457 kts | 226° |
| 2026-05-05 21:33 | 35.15252 | -115.99592 | 25057 ft | 459 kts | 226° |
| 2026-05-05 21:33 | 35.13009 | -116.02380 | 25399 ft | 461 kts | 226° |
| 2026-05-05 21:33 | 35.10727 | -116.05217 | 25749 ft | 463 kts | 226° |
| 2026-05-05 21:34 | 35.08501 | -116.07998 | 26059 ft | 465 kts | 226° |
| 2026-05-05 21:34 | 35.06242 | -116.10834 | 26368 ft | 467 kts | 226° |
| 2026-05-05 21:34 | 35.03974 | -116.13685 | 26679 ft | 469 kts | 226° |
| 2026-05-05 21:34 | 35.01695 | -116.16554 | 26981 ft | 472 kts | 226° |
| 2026-05-05 21:35 | 34.99406 | -116.19432 | 27295 ft | 474 kts | 226° |
| 2026-05-05 21:35 | 34.97102 | -116.22323 | 27609 ft | 476 kts | 226° |
| 2026-05-05 21:35 | 34.94785 | -116.25224 | 27862 ft | 479 kts | 226° |
| 2026-05-05 21:35 | 34.92478 | -116.28106 | 27909 ft | 470 kts | 226° |
| 2026-05-05 21:36 | 34.90210 | -116.30938 | 27908 ft | 465 kts | 226° |
| 2026-05-05 21:36 | 34.87951 | -116.33757 | 27910 ft | 464 kts | 226° |
| 2026-05-05 21:36 | 34.85704 | -116.36581 | 27672 ft | 465 kts | 227° |
| 2026-05-05 21:36 | 34.83467 | -116.39427 | 27410 ft | 465 kts | 227° |
| 2026-05-05 21:37 | 34.81241 | -116.42280 | 27140 ft | 465 kts | 227° |
| 2026-05-05 21:37 | 34.79028 | -116.45120 | 26551 ft | 461 kts | 227° |
| 2026-05-05 21:37 | 34.76826 | -116.47942 | 25923 ft | 458 kts | 227° |
| 2026-05-05 21:37 | 34.74634 | -116.50740 | 25311 ft | 455 kts | 227° |
| 2026-05-05 21:38 | 34.72474 | -116.53486 | 25121 ft | 440 kts | 227° |
| 2026-05-05 21:38 | 34.70400 | -116.56115 | 24798 ft | 424 kts | 227° |
| 2026-05-05 21:38 | 34.68267 | -116.58510 | 24804 ft | 417 kts | 219° |
| 2026-05-05 21:38 | 34.65987 | -116.60750 | 24119 ft | 424 kts | 219° |
| 2026-05-05 21:39 | 34.63690 | -116.63000 | 23577 ft | 424 kts | 219° |
| 2026-05-05 21:39 | 34.61417 | -116.65222 | 22947 ft | 415 kts | 219° |
| 2026-05-05 21:39 | 34.59168 | -116.67414 | 22329 ft | 414 kts | 220° |
| 2026-05-05 21:39 | 34.56926 | -116.69601 | 21788 ft | 413 kts | 220° |
| 2026-05-05 21:40 | 34.54694 | -116.71782 | 21268 ft | 411 kts | 220° |
| 2026-05-05 21:40 | 34.52475 | -116.73950 | 20739 ft | 407 kts | 220° |
| 2026-05-05 21:40 | 34.50312 | -116.76091 | 20221 ft | 395 kts | 224° |
| 2026-05-05 21:40 | 34.48343 | -116.78373 | 19744 ft | 390 kts | 225° |
| 2026-05-05 21:41 | 34.46416 | -116.80620 | 19263 ft | 389 kts | 225° |
| 2026-05-05 21:41 | 34.44468 | -116.82884 | 18784 ft | 387 kts | 225° |
| 2026-05-05 21:41 | 34.42530 | -116.85132 | 18308 ft | 382 kts | 225° |
| 2026-05-05 21:41 | 34.40609 | -116.87356 | 17769 ft | 372 kts | 225° |
| 2026-05-05 21:42 | 34.38772 | -116.89481 | 17251 ft | 370 kts | 225° |
| 2026-05-05 21:42 | 34.36915 | -116.91627 | 16723 ft | 367 kts | 225° |
| 2026-05-05 21:42 | 34.35051 | -116.93782 | 16206 ft | 365 kts | 225° |
| 2026-05-05 21:42 | 34.33247 | -116.95871 | 15725 ft | 363 kts | 225° |
| 2026-05-05 21:43 | 34.31425 | -116.97977 | 15228 ft | 361 kts | 225° |
| 2026-05-05 21:43 | 34.29616 | -117.00062 | 14754 ft | 357 kts | 224° |
| 2026-05-05 21:43 | 34.27834 | -117.02107 | 14272 ft | 351 kts | 224° |
| 2026-05-05 21:43 | 34.25921 | -117.03926 | 13804 ft | 350 kts | 213° |
| 2026-05-05 21:44 | 34.23847 | -117.05421 | 13421 ft | 345 kts | 212° |
| 2026-05-05 21:44 | 34.21801 | -117.06890 | 13027 ft | 339 kts | 212° |
| 2026-05-05 21:44 | 34.19782 | -117.08342 | 12638 ft | 336 kts | 212° |
| 2026-05-05 21:44 | 34.17783 | -117.09779 | 12255 ft | 333 kts | 212° |
| 2026-05-05 21:45 | 34.15769 | -117.11145 | 12002 ft | 332 kts | 208° |
| 2026-05-05 21:45 | 34.13707 | -117.12401 | 12001 ft | 333 kts | 207° |
| 2026-05-05 21:45 | 34.11618 | -117.13606 | 12007 ft | 331 kts | 206° |
| 2026-05-05 21:45 | 34.09584 | -117.14756 | 12006 ft | 315 kts | 206° |
| 2026-05-05 21:46 | 34.07646 | -117.15852 | 12007 ft | 302 kts | 206° |
| 2026-05-05 21:46 | 34.05754 | -117.16934 | 12010 ft | 300 kts | 207° |
| 2026-05-05 21:46 | 34.03874 | -117.18026 | 12010 ft | 300 kts | 207° |
| 2026-05-05 21:46 | 34.01995 | -117.19124 | 12011 ft | 300 kts | 207° |
| 2026-05-05 21:47 | 34.00116 | -117.20222 | 12008 ft | 300 kts | 207° |
| 2026-05-05 21:47 | 33.98245 | -117.21319 | 11794 ft | 298 kts | 207° |
| 2026-05-05 21:47 | 33.96380 | -117.22411 | 11442 ft | 297 kts | 206° |
| 2026-05-05 21:47 | 33.94507 | -117.23461 | 11109 ft | 297 kts | 206° |
| 2026-05-05 21:48 | 33.92629 | -117.24482 | 10780 ft | 296 kts | 205° |
| 2026-05-05 21:48 | 33.90778 | -117.25480 | 10502 ft | 295 kts | 206° |
| 2026-05-05 21:48 | 33.88913 | -117.26485 | 10179 ft | 294 kts | 205° |
| 2026-05-05 21:48 | 33.87053 | -117.27490 | 9981 ft | 293 kts | 205° |
| 2026-05-05 21:49 | 33.85194 | -117.28497 | 9979 ft | 294 kts | 205° |
| 2026-05-05 21:49 | 33.83327 | -117.29513 | 9981 ft | 294 kts | 206° |
| 2026-05-05 21:49 | 33.81489 | -117.30567 | 9698 ft | 292 kts | 207° |
| 2026-05-05 21:49 | 33.79672 | -117.31650 | 9377 ft | 290 kts | 207° |
| 2026-05-05 21:50 | 33.77872 | -117.32738 | 9055 ft | 289 kts | 208° |
| 2026-05-05 21:50 | 33.76088 | -117.33814 | 8861 ft | 285 kts | 208° |
| 2026-05-05 21:50 | 33.74337 | -117.34864 | 8694 ft | 278 kts | 207° |
| 2026-05-05 21:50 | 33.72609 | -117.35898 | 8418 ft | 276 kts | 208° |
| 2026-05-05 21:51 | 33.70899 | -117.36920 | 8165 ft | 273 kts | 207° |
| 2026-05-05 21:51 | 33.69201 | -117.37933 | 7924 ft | 272 kts | 207° |
| 2026-05-05 21:51 | 33.67515 | -117.38937 | 7685 ft | 269 kts | 207° |
| 2026-05-05 21:51 | 33.65864 | -117.39918 | 7480 ft | 260 kts | 207° |
| 2026-05-05 21:52 | 33.62648 | -117.41819 | 6996 ft | 255 kts | 207° |
| 2026-05-05 21:52 | 33.61059 | -117.42756 | 6766 ft | 253 kts | 207° |
| 2026-05-05 21:52 | 33.59587 | -117.43811 | 6623 ft | 243 kts | 220° |
| 2026-05-05 21:53 | 33.58467 | -117.45294 | 6354 ft | 239 kts | 237° |
| 2026-05-05 21:53 | 33.57769 | -117.47087 | 6116 ft | 237 kts | 254° |
| 2026-05-05 21:53 | 33.57524 | -117.49024 | 5899 ft | 235 kts | 269° |
| 2026-05-05 21:53 | 33.57495 | -117.50976 | 5774 ft | 234 kts | 268° |
| 2026-05-05 21:54 | 33.57453 | -117.52925 | 5674 ft | 234 kts | 268° |
| 2026-05-05 21:54 | 33.57408 | -117.54875 | 5570 ft | 234 kts | 268° |
| 2026-05-05 21:54 | 33.57363 | -117.56801 | 5301 ft | 230 kts | 268° |
| 2026-05-05 21:54 | 33.57334 | -117.58191 | 5045 ft | 229 kts | 267° |
| 2026-05-05 21:55 | 33.57293 | -117.60093 | 4691 ft | 227 kts | 268° |
| 2026-05-05 21:55 | 33.57259 | -117.61977 | 4337 ft | 225 kts | 268° |
| 2026-05-05 21:55 | 33.57239 | -117.63834 | 4023 ft | 219 kts | 272° |
| 2026-05-05 21:55 | 33.57463 | -117.65610 | 4012 ft | 214 kts | 279° |
| 2026-05-05 21:56 | 33.57781 | -117.67357 | 4021 ft | 214 kts | 281° |
| 2026-05-05 21:56 | 33.57992 | -117.68513 | 4017 ft | 214 kts | 281° |
| 2026-05-05 21:56 | 33.58313 | -117.70261 | 4026 ft | 215 kts | 280° |
| 2026-05-05 21:56 | 33.58642 | -117.72006 | 4022 ft | 215 kts | 281° |
| 2026-05-05 21:57 | 33.58974 | -117.73750 | 4024 ft | 215 kts | 281° |
| 2026-05-05 21:57 | 33.59309 | -117.75498 | 4027 ft | 215 kts | 281° |
| 2026-05-05 21:57 | 33.59756 | -117.77214 | 4025 ft | 217 kts | 290° |
| 2026-05-05 21:57 | 33.60332 | -117.78889 | 4030 ft | 218 kts | 291° |
| 2026-05-05 21:58 | 33.60921 | -117.80566 | 4025 ft | 218 kts | 291° |
| 2026-05-05 21:58 | 33.61502 | -117.82228 | 3843 ft | 214 kts | 290° |
| 2026-05-05 21:58 | 33.62083 | -117.83871 | 3482 ft | 213 kts | 290° |
| 2026-05-05 21:58 | 33.62666 | -117.85499 | 3169 ft | 212 kts | 291° |
| 2026-05-05 21:59 | 33.63223 | -117.87019 | 3029 ft | 200 kts | 291° |
| 2026-05-05 21:59 | 33.63760 | -117.88478 | 3043 ft | 186 kts | 291° |
| 2026-05-05 21:59 | 33.64275 | -117.89875 | 3028 ft | 181 kts | 291° |
| 2026-05-05 21:59 | 33.64783 | -117.91254 | 3015 ft | 180 kts | 291° |
| 2026-05-05 22:00 | 33.65289 | -117.92627 | 3020 ft | 180 kts | 291° |
| 2026-05-05 22:00 | 33.65795 | -117.94005 | 3018 ft | 180 kts | 290° |
| 2026-05-05 22:00 | 33.66297 | -117.95384 | 3017 ft | 180 kts | 291° |
| 2026-05-05 22:00 | 33.66804 | -117.96756 | 3021 ft | 181 kts | 293° |
| 2026-05-05 22:01 | 33.67570 | -117.97954 | 3027 ft | 182 kts | 310° |
| 2026-05-05 22:01 | 33.68453 | -117.99049 | 3019 ft | 183 kts | 311° |
| 2026-05-05 22:01 | 33.69348 | -118.00134 | 2991 ft | 183 kts | 311° |
| 2026-05-05 22:01 | 33.70232 | -118.01200 | 2975 ft | 183 kts | 310° |
| 2026-05-05 22:02 | 33.71146 | -118.02302 | 2803 ft | 183 kts | 310° |
| 2026-05-05 22:02 | 33.72027 | -118.03363 | 2571 ft | 178 kts | 311° |
| 2026-05-05 22:02 | 33.72864 | -118.04368 | 2371 ft | 165 kts | 309° |
| 2026-05-05 22:02 | 33.73645 | -118.05310 | 2156 ft | 156 kts | 311° |
| 2026-05-05 22:03 | 33.74395 | -118.06214 | 1927 ft | 151 kts | 310° |
| 2026-05-05 22:03 | 33.75141 | -118.07109 | 1738 ft | 150 kts | 308° |
| 2026-05-05 22:03 | 33.75870 | -118.07997 | 1533 ft | 150 kts | 309° |
| 2026-05-05 22:03 | 33.76607 | -118.08888 | 1354 ft | 150 kts | 311° |
| 2026-05-05 22:04 | 33.77341 | -118.09774 | 1132 ft | 149 kts | 310° |
| 2026-05-05 22:04 | 33.78067 | -118.10650 | 934 ft | 148 kts | 309° |
| 2026-05-05 22:04 | 33.78807 | -118.11547 | 717 ft | 153 kts | 310° |
| 2026-05-05 22:04 | 33.79560 | -118.12459 | 531 ft | 155 kts | 308° |
| 2026-05-05 22:05 | 33.80322 | -118.13371 | 329 ft | 155 kts | 307° |
| 2026-05-05 22:05 | 33.81075 | -118.14285 | 100 ft | 155 kts | 308° |
| 2026-05-05 22:05 | 33.81755 | -118.15119 | 36 ft | 116 kts | 316° |
| 2026-05-05 22:05 | 33.82078 | -118.15494 | 34 ft | 20 kts | 315° |
| 2026-05-05 22:06 | 33.82153 | -118.15515 | 35 ft | 11 kts | 40° |
| 2026-05-05 22:06 | 33.82164 | -118.15417 | 33 ft | 14 kts | 92° |
| 2026-05-05 22:06 | 33.82164 | -118.15291 | 31 ft | 16 kts | 89° |
| 2026-05-05 22:06 | 33.82165 | -118.15150 | 30 ft | 17 kts | 91° |
| 2026-05-05 22:07 | 33.82164 | -118.15000 | 30 ft | 18 kts | 92° |
| 2026-05-05 22:07 | 33.82163 | -118.14843 | 30 ft | 19 kts | 89° |
| 2026-05-05 22:07 | 33.82157 | -118.14729 | 30 ft | 11 kts | 109° |
| 2026-05-05 22:07 | 33.82088 | -118.14699 | 29 ft | 12 kts | 179° |
| 2026-05-05 22:08 | 33.81998 | -118.14699 | 29 ft | 14 kts | 180° |
| 2026-05-05 22:08 | 33.81909 | -118.14699 | 29 ft | 12 kts | 181° |
| 2026-05-05 22:08 | 33.81861 | -118.14690 | 29 ft | 3 kts | 120° |
| 2026-05-05 22:08 | 33.81860 | -118.14653 | 29 ft | 5 kts | 91° |
| 2026-05-05 22:09 | 33.81860 | -118.14618 | 29 ft | 3 kts | 90° |
| 2026-05-05 22:09 | 33.81860 | -118.14603 | 29 ft | 1 kts | 90° |
| 2026-05-05 22:09 | 33.81860 | -118.14601 | 29 ft | 0 kts | 90° |